METAR Data
IDs: Format: Raw Decoded Include TAF

Data at: 1231 UTC 23 Sep 2018

KMQY 231156Z 11003KT 2SM -RA BR OVC002 21/21 A3003 RMK AO2 SLP075 P0000 60009 70117 T02060206 10211 20206 51006
KMQY 231138Z AUTO 00000KT 8SM -RA OVC002 21/21 A3004 RMK AO2 P0000
KMQY 231056Z AUTO 00000KT 10SM -RA BKN004 21/21 A3003 RMK AO2 SLP074 P0001 T02060206
KMQY 231054Z AUTO 00000KT 10SM -RA BKN004 21/21 A3003 RMK AO2 P0001
KMQY 231044Z AUTO 18003KT 10SM -RA SCT004 21/21 A3003 RMK AO2 P0001
KMQY 230956Z AUTO 02005KT 10SM -RA FEW050 OVC090 21/21 A3002 RMK AO2 SLP068 P0008 T02060206
KMQY 230856Z AUTO 31003KT 10SM -RA FEW036 BKN050 OVC085 21/21 A3004 RMK AO2 RAB13E35B53 SLP073 P0000 60000 T02060206 53001
KMQY 230818Z AUTO 25003KT 10SM -RA FEW005 BKN070 OVC085 21/21 A3003 RMK AO2 RAB13 P0000
KMQY 230756Z AUTO 00000KT 10SM OVC065 21/20 A3002 RMK AO2 SLP068 T02060200
KMQY 230656Z AUTO 00000KT 10SM SCT085 SCT120 21/20 A3003 RMK AO2 RAB01E18 SLP060 P0000 T02060200
KMQY 230556Z AUTO 10003KT 10SM BKN060 BKN075 OVC110 21/20 A3003 RMK AO2 RAE00 SLP060 P0000 60053 T02060200 10206 20194 402890194 58017
KMQY 230456Z AUTO 15005KT 10SM -RA BKN070 BKN120 20/20 A3005 RMK AO2 SLP070 P0001 T02000200
KMQY 230356Z AUTO 12004KT 10SM -RA BKN110 20/19 A3007 RMK AO2 TSB17E32 SLP077 P0008 T02000194
KMQY 230338Z AUTO 15003KT 8SM -RA SCT060 OVC110 19/19 A3007 RMK AO2 LTG DSNT N TSB17E32 P0008
KMQY 230323Z AUTO 10003KT 8SM VCTS RA SCT060 OVC100 19/19 A3008 RMK AO2 TSB17 P0007
KMQY 230256Z AUTO 09006KT 8SM RA FEW010 BKN080 OVC110 19/19 A3008 RMK AO2 LTG DSNT N TSE24 SLP087 P0031 60044 T01940194 50009
KMQY 230230Z AUTO 10004KT 8SM RA FEW007 BKN050 OVC070 19/19 A3009 RMK AO2 LTG DSNT N AND NW TSE24 P0026
KMQY 230220Z AUTO 07008KT 3SM VCTS +RA BR SCT007 BKN028 OVC060 19/19 A3009 RMK AO2 LTG DSNT W AND NW P0025
KMQY 230214Z AUTO 08005KT 1 3/4SM VCTS +RA BR BKN007 BKN021 OVC028 19/19 A3010 RMK AO2 LTG DSNT W AND NW CIG 005V013 P0021
KMQY 230156Z AUTO 31005KT 10SM VCTS RA BKN007 OVC050 19/19 A3009 RMK AO2 LTG DSNT N AND NW TSB45 CIG 005V011 SLP092 P0012 T01940194
KMQY 230146Z AUTO 32006KT 10SM VCTS -RA BKN007 BKN039 OVC055 19/19 A3009 RMK AO2 LTG DSNT W-N TSB45 CIG 003V011 P0011
KMQY 230138Z AUTO 01005KT 10SM -RA FEW007 BKN055 OVC080 19/19 A3008 RMK AO2 LTG DSNT W-N P0011
KMQY 230116Z AUTO 03007KT 10SM RA BKN007 OVC049 19/19 A3007 RMK AO2 LTG DSNT W CIG 005V012 P0008
KMQY 230056Z AUTO 29006KT 10SM -RA OVC005 19/19 A3009 RMK AO2 LTG DSNT W AND NW PRESRR SLP096 P0001 T01940189
KMQY 222356Z AUTO 04007KT 10SM RA OVC005 20/19 A3006 RMK AO2 SLP085 P0013 60055 T02000194 10283 20200 50005
KMQY 222330Z 03008KT 10SM RA BKN007 BKN021 OVC090 20/19 A3005 RMK AO2 P0009
KMQY 222256Z 36009KT 2SM RA BR OVC007 21/20 A3006 RMK AO2 CIG 004V009 SLP084 P0013 T02060200
KMQY 222218Z 01008KT 2SM RA BR OVC007 21/21 A3006 RMK AO2 CIG 004V010 P0006
KMQY 222158Z 35004KT 6SM RA BR BKN007 OVC024 21/20 A3006 RMK AO2 P0003
KMQY 222151Z 32005KT 2SM +RA BR BKN009 OVC015 21/20 A3006 RMK AO2 RAE00B30 SLP080 P0004 T02110200
KMQY 222150Z 33006KT 2SM RA BR BKN009 OVC015 21/20 A3006 RMK AO2 RAE00B30 P0004
KMQY 222139Z 35008KT 10SM -RA SCT009 BKN024 OVC085 21/20 A3005 RMK AO2 RAE00B30 CIG 021V032 P0002
KMQY 222127Z 31003KT 10SM BKN007 OVC020 21/20 A3006 RMK AO2 RAE00 CIG 006V011 P0000
KMQY 222105Z 02009KT 10SM FEW007 BKN020 OVC080 22/21 A3004 RMK AO2 RAE00 P0000
KMQY 222056Z 04010KT 10SM -RA SCT019 BKN050 21/21 A3004 RMK AO2 SLP074 P0019 60025 T02110206 58002
KMQY 222053Z 03010KT 10SM -RA FEW019 BKN050 OVC075 21/21 A3004 RMK AO2 P0019
KMQY 222033Z 02011KT 8SM -RA SCT012 BKN017 OVC055 22/21 A3004 RMK AO2 P0019
KMQY 221956Z 35007KT 2SM +RA BR BKN014 BKN020 OVC050 22/21 A3005 RMK AO2 TSB19E37B45E53RAB21 SLP077 P0006 T02170206
KMQY 221946Z 34012KT 10SM -TSRA BKN016CB OVC020 23/21 A3005 RMK AO2 TSB19E37B45RAB21 OCNL LTGCCIC TS SE MOV NE P0000
KMQY 221937Z 34010KT 10SM -RA BKN016 OVC020 23/21 A3005 RMK AO2 LTG DSNT NW TSB19E37RAB21 P0000
KMQY 221925Z 33015KT 10SM -TSRA SCT020CB BKN065 25/21 A3004 RMK AO2 TSB19RAB21 OCNL LTG ICCCCG TS SE MOV NNE P0000
KMQY 221856Z 34012KT 10SM SCT028 BKN050 27/22 A3005 RMK AO2 LTG DSNT W SLP063 T02720222
KMQY 221756Z 00000KT 10SM FEW025 BKN037 BKN044 28/22 A3008 RMK AO2 SLP073 T02780222 10289 20211 58013
KMQY 221656Z 00000KT 10SM BKN120 27/22 A3010 RMK AO2 SLP081 T02720222
KMQY 221603Z 00000KT 10SM FEW016 BKN045 OVC110 26/22 A3011 RMK AO2
KMQY 221456Z 05003KT 10SM BKN012 26/23 A3012 RMK AO2 SLP091 T02610228 53001
KMQY 221440Z 00000KT 10SM BKN010 25/22 A3012 RMK AO2
KMQY 221356Z 00000KT 6SM BR SCT005 24/23 A3011 RMK AO2 SLP089 T02440228
KMQY 221351Z 11003KT 6SM BR SCT005 24/22 A3011 RMK AO2
KMQY 221324Z 13003KT 9SM BKN005 BKN015 23/22 A3012 RMK AO2
KMQY 221314Z 14003KT 10SM FEW005 23/22 A3012 RMK AO2
KMQY 221256Z 00000KT 4SM BR FEW010 22/22 A3012 RMK AO2 SLP095 T02220217
KMQY 221156Z 00000KT 6SM BR CLR 21/21 A3011 RMK AO2 SLP095 60001 70038 T02110211 10233 20206 53006
KMQY 221144Z AUTO 00000KT 4SM BR CLR 21/21 A3011 RMK AO2
KMQY 221123Z AUTO 15004KT 2 1/2SM BR CLR 21/21 A3010 RMK AO2
KMQY 221108Z AUTO 00000KT 1SM BR FEW110 21/21 A3010 RMK AO2
KMQY 221058Z AUTO 17003KT 1 3/4SM BR CLR 21/21 A3010 RMK AO2 VIS 1/2V5
KMQY 221056Z AUTO 00000KT 3SM BR CLR 21/21 A3010 RMK AO2 SLP092 T02110206
KMQY 221049Z AUTO 00000KT 3SM BR CLR 21/21 A3010 RMK AO2
KMQY 221033Z AUTO 00000KT 1 3/4SM BR CLR 21/21 A3010 RMK AO2 VIS 1V4
KMQY 221021Z AUTO 00000KT 3SM BR CLR 21/21 A3010 RMK AO2
KMQY 221016Z AUTO 00000KT 1 1/2SM BR CLR 21/21 A3009 RMK AO2 VIS 1/2V5
KMQY 221006Z AUTO 14004KT 3/4SM BR CLR 22/21 A3009 RMK AO2
KMQY 220956Z AUTO 00000KT 1 1/4SM BR FEW100 22/21 A3009 RMK AO2 VIS 1/2V5 RAE0859 SLP085 P0000 T02170211
KMQY 220947Z AUTO 00000KT 3/4SM BR FEW100 21/21 A3009 RMK AO2 VIS 1/2V2 1/2 RAE0859 P0000
KMQY 220942Z AUTO 00000KT 1 3/4SM BR SCT100 22/21 A3009 RMK AO2 VIS 1/2V5 RAE0859 P0000
KMQY 220856Z AUTO 00000KT 10SM -RA FEW048 SCT055 OVC070 22/21 A3009 RMK AO2 RAB44 SLP088 P0000 60001 T02220211 58003
KMQY 220704Z AUTO 32005KT 9SM SCT006 23/22 A3010 RMK AO2
KMQY 220656Z AUTO 00000KT 9SM BKN006 23/22 A3010 RMK AO2 RAE38 SLP075 P0001 T02280222
KMQY 220643Z AUTO 00000KT 10SM SCT008 23/22 A3010 RMK AO2 RAE38 P0001
KMQY 220631Z AUTO 00000KT 10SM -RA FEW006 BKN010 23/22 A3010 RMK AO2 P0001
KMQY 220618Z AUTO 20003KT 9SM -RA SCT006 BKN075 BKN090 23/23 A3011 RMK AO2 P0000
KMQY 220556Z AUTO 15004KT 6SM -RA BR FEW065 OVC100 23/23 A3010 RMK AO2 SLP079 P0013 60023 T02330228 10256 20233 403220211 58005
KMQY 220456Z AUTO 21003KT 4SM RA BR FEW022 BKN080 OVC100 24/23 A3013 RMK AO2 RAB15 SLP090 P0009 T02390228
KMQY 220451Z AUTO 18003KT 5SM RA BR SCT022 BKN070 OVC100 24/23 A3013 RMK AO2 RAB15 P0007
KMQY 220434Z AUTO 23005KT 10SM RA BKN024 BKN030 OVC055 24/23 A3014 RMK AO2 RAB15 P0002
KMQY 220356Z AUTO 00000KT 10SM FEW060 24/23 A3012 RMK AO2 SLP085 T02390228
KMQY 220256Z AUTO 10007KT 10SM BKN060 OVC110 24/23 A3010 RMK AO2 RAB25E54 SLP083 P0001 60001 T02390228 51013
KMQY 220156Z 02006KT 10SM BKN065 OVC100 25/23 A3010 RMK AO2 SLP080 T02500228
KMQY 220056Z 34008KT 10SM BKN050 25/23 A3009 RMK AO2 SLP079 T02500228